sensor_id;sensor_type;location;lat;lon;timestamp;P1;durP1;ratioP1;P2;durP2;ratioP2
3637;SDS011;1835;50.068;8.154;2022-08-04T00:00:28;1.27;;;1.27;;
3637;SDS011;1835;50.068;8.154;2022-08-04T00:03:00;3.43;;;1.53;;
3637;SDS011;1835;50.068;8.154;2022-08-04T00:05:45;1.60;;;1.50;;
3637;SDS011;1835;50.068;8.154;2022-08-04T00:08:25;1.83;;;1.70;;
3637;SDS011;1835;50.068;8.154;2022-08-04T00:11:01;3.00;;;1.60;;
3637;SDS011;1835;50.068;8.154;2022-08-04T00:13:31;1.30;;;1.30;;
3637;SDS011;1835;50.068;8.154;2022-08-04T00:16:23;4.50;;;1.70;;
3637;SDS011;1835;50.068;8.154;2022-08-04T00:19:03;2.93;;;1.70;;
3637;SDS011;1835;50.068;8.154;2022-08-04T00:21:40;1.47;;;1.37;;
3637;SDS011;1835;50.068;8.154;2022-08-04T00:24:14;1.50;;;1.30;;
3637;SDS011;1835;50.068;8.154;2022-08-04T00:26:43;3.10;;;1.53;;
3637;SDS011;1835;50.068;8.154;2022-08-04T00:29:12;1.83;;;1.73;;
3637;SDS011;1835;50.068;8.154;2022-08-04T00:31:40;6.17;;;1.87;;
3637;SDS011;1835;50.068;8.154;2022-08-04T00:34:23;1.50;;;1.40;;
3637;SDS011;1835;50.068;8.154;2022-08-04T00:36:55;1.60;;;1.50;;
3637;SDS011;1835;50.068;8.154;2022-08-04T00:39:24;1.90;;;1.80;;
3637;SDS011;1835;50.068;8.154;2022-08-04T00:42:06;2.10;;;1.77;;
3637;SDS011;1835;50.068;8.154;2022-08-04T00:45:18;1.97;;;1.87;;
3637;SDS011;1835;50.068;8.154;2022-08-04T00:48:31;3.27;;;1.70;;
3637;SDS011;1835;50.068;8.154;2022-08-04T00:51:24;1.73;;;1.43;;
3637;SDS011;1835;50.068;8.154;2022-08-04T00:54:10;1.53;;;1.43;;
3637;SDS011;1835;50.068;8.154;2022-08-04T00:56:56;1.77;;;1.57;;
3637;SDS011;1835;50.068;8.154;2022-08-04T01:00:03;1.60;;;1.50;;
3637;SDS011;1835;50.068;8.154;2022-08-04T01:02:35;3.40;;;1.80;;
3637;SDS011;1835;50.068;8.154;2022-08-04T01:05:19;7.40;;;3.20;;
3637;SDS011;1835;50.068;8.154;2022-08-04T01:07:58;1.70;;;1.70;;
3637;SDS011;1835;50.068;8.154;2022-08-04T01:11:02;2.00;;;1.90;;
3637;SDS011;1835;50.068;8.154;2022-08-04T01:13:43;1.80;;;1.70;;
3637;SDS011;1835;50.068;8.154;2022-08-04T01:16:32;1.67;;;1.67;;
3637;SDS011;1835;50.068;8.154;2022-08-04T01:19:12;1.50;;;1.40;;
3637;SDS011;1835;50.068;8.154;2022-08-04T01:22:10;1.67;;;1.67;;
3637;SDS011;1835;50.068;8.154;2022-08-04T01:25:02;11.83;;;4.13;;
3637;SDS011;1835;50.068;8.154;2022-08-04T01:28:02;1.30;;;1.30;;
3637;SDS011;1835;50.068;8.154;2022-08-04T01:30:52;2.10;;;1.93;;
3637;SDS011;1835;50.068;8.154;2022-08-04T01:33:25;1.90;;;1.80;;
3637;SDS011;1835;50.068;8.154;2022-08-04T01:36:16;2.00;;;1.90;;
3637;SDS011;1835;50.068;8.154;2022-08-04T01:38:50;2.07;;;1.97;;
3637;SDS011;1835;50.068;8.154;2022-08-04T01:41:20;2.13;;;2.03;;
3637;SDS011;1835;50.068;8.154;2022-08-04T01:43:58;4.90;;;2.77;;
3637;SDS011;1835;50.068;8.154;2022-08-04T01:46:31;1.70;;;1.63;;
3637;SDS011;1835;50.068;8.154;2022-08-04T01:49:01;5.27;;;2.00;;
3637;SDS011;1835;50.068;8.154;2022-08-04T01:51:30;2.33;;;2.13;;
3637;SDS011;1835;50.068;8.154;2022-08-04T01:54:01;1.97;;;1.87;;
3637;SDS011;1835;50.068;8.154;2022-08-04T01:56:29;1.97;;;1.87;;
3637;SDS011;1835;50.068;8.154;2022-08-04T01:58:57;2.20;;;1.83;;
3637;SDS011;1835;50.068;8.154;2022-08-04T02:01:31;1.80;;;1.70;;
3637;SDS011;1835;50.068;8.154;2022-08-04T02:04:03;1.90;;;1.80;;
3637;SDS011;1835;50.068;8.154;2022-08-04T02:06:49;1.77;;;1.67;;
3637;SDS011;1835;50.068;8.154;2022-08-04T02:09:34;2.00;;;1.90;;
3637;SDS011;1835;50.068;8.154;2022-08-04T02:12:23;2.20;;;2.00;;
3637;SDS011;1835;50.068;8.154;2022-08-04T02:14:59;2.13;;;1.73;;
3637;SDS011;1835;50.068;8.154;2022-08-04T02:17:39;2.03;;;1.93;;
3637;SDS011;1835;50.068;8.154;2022-08-04T02:20:21;5.20;;;1.57;;
3637;SDS011;1835;50.068;8.154;2022-08-04T02:22:52;1.50;;;1.40;;
3637;SDS011;1835;50.068;8.154;2022-08-04T02:25:29;1.77;;;1.67;;
3637;SDS011;1835;50.068;8.154;2022-08-04T02:28:10;8.90;;;2.30;;
3637;SDS011;1835;50.068;8.154;2022-08-04T02:30:46;1.90;;;1.80;;
3637;SDS011;1835;50.068;8.154;2022-08-04T02:33:29;3.93;;;2.00;;
3637;SDS011;1835;50.068;8.154;2022-08-04T02:36:04;1.60;;;1.60;;
3637;SDS011;1835;50.068;8.154;2022-08-04T02:38:46;2.47;;;1.73;;
3637;SDS011;1835;50.068;8.154;2022-08-04T02:41:23;2.33;;;1.73;;
3637;SDS011;1835;50.068;8.154;2022-08-04T02:43:55;1.80;;;1.70;;
3637;SDS011;1835;50.068;8.154;2022-08-04T02:46:27;2.00;;;1.90;;
3637;SDS011;1835;50.068;8.154;2022-08-04T02:49:00;2.10;;;1.97;;
3637;SDS011;1835;50.068;8.154;2022-08-04T02:51:32;1.83;;;1.80;;
3637;SDS011;1835;50.068;8.154;2022-08-04T02:54:02;1.80;;;1.70;;
3637;SDS011;1835;50.068;8.154;2022-08-04T02:56:32;1.90;;;1.80;;
3637;SDS011;1835;50.068;8.154;2022-08-04T02:59:06;4.43;;;2.17;;
3637;SDS011;1835;50.068;8.154;2022-08-04T03:01:36;3.33;;;1.90;;
3637;SDS011;1835;50.068;8.154;2022-08-04T03:04:30;2.50;;;2.33;;
3637;SDS011;1835;50.068;8.154;2022-08-04T03:11:04;1.83;;;1.80;;
3637;SDS011;1835;50.068;8.154;2022-08-04T03:14:11;2.00;;;1.83;;
3637;SDS011;1835;50.068;8.154;2022-08-04T03:27:11;1.83;;;1.73;;
3637;SDS011;1835;50.068;8.154;2022-08-04T03:30:30;2.23;;;2.13;;
3637;SDS011;1835;50.068;8.154;2022-08-04T03:33:13;2.27;;;2.17;;
3637;SDS011;1835;50.068;8.154;2022-08-04T03:39:28;2.00;;;1.90;;
3637;SDS011;1835;50.068;8.154;2022-08-04T03:42:32;1.63;;;1.53;;
3637;SDS011;1835;50.068;8.154;2022-08-04T03:45:50;1.70;;;1.60;;
3637;SDS011;1835;50.068;8.154;2022-08-04T03:55:46;2.50;;;2.40;;
3637;SDS011;1835;50.068;8.154;2022-08-04T04:02:06;2.23;;;2.13;;
3637;SDS011;1835;50.068;8.154;2022-08-04T04:04:56;4.17;;;2.00;;
3637;SDS011;1835;50.068;8.154;2022-08-04T04:11:18;2.20;;;2.10;;
3637;SDS011;1835;50.068;8.154;2022-08-04T04:17:22;3.27;;;2.23;;
3637;SDS011;1835;50.068;8.154;2022-08-04T04:20:20;2.77;;;2.47;;
3637;SDS011;1835;50.068;8.154;2022-08-04T04:23:30;2.27;;;2.17;;
3637;SDS011;1835;50.068;8.154;2022-08-04T04:26:29;2.53;;;2.10;;
3637;SDS011;1835;50.068;8.154;2022-08-04T04:29:18;2.73;;;2.07;;
3637;SDS011;1835;50.068;8.154;2022-08-04T04:32:26;8.77;;;2.13;;
3637;SDS011;1835;50.068;8.154;2022-08-04T04:35:13;2.30;;;2.17;;
3637;SDS011;1835;50.068;8.154;2022-08-04T04:38:00;4.20;;;2.40;;
3637;SDS011;1835;50.068;8.154;2022-08-04T04:40:55;2.37;;;2.27;;
3637;SDS011;1835;50.068;8.154;2022-08-04T04:46:59;2.33;;;2.20;;
3637;SDS011;1835;50.068;8.154;2022-08-04T04:49:33;1.90;;;1.80;;
3637;SDS011;1835;50.068;8.154;2022-08-04T04:52:16;2.67;;;2.40;;
3637;SDS011;1835;50.068;8.154;2022-08-04T04:54:52;2.43;;;2.27;;
3637;SDS011;1835;50.068;8.154;2022-08-04T04:57:28;3.37;;;3.07;;
3637;SDS011;1835;50.068;8.154;2022-08-04T05:00:20;5.10;;;3.97;;
3637;SDS011;1835;50.068;8.154;2022-08-04T05:02:58;3.00;;;2.70;;
3637;SDS011;1835;50.068;8.154;2022-08-04T05:05:56;2.70;;;2.23;;
3637;SDS011;1835;50.068;8.154;2022-08-04T05:09:02;3.03;;;2.83;;
3637;SDS011;1835;50.068;8.154;2022-08-04T05:11:49;2.50;;;2.30;;
3637;SDS011;1835;50.068;8.154;2022-08-04T05:15:34;3.10;;;2.60;;
3637;SDS011;1835;50.068;8.154;2022-08-04T05:18:08;2.70;;;2.50;;
3637;SDS011;1835;50.068;8.154;2022-08-04T05:20:44;3.33;;;2.77;;
3637;SDS011;1835;50.068;8.154;2022-08-04T05:23:18;4.20;;;2.53;;
3637;SDS011;1835;50.068;8.154;2022-08-04T05:25:52;2.33;;;2.17;;
3637;SDS011;1835;50.068;8.154;2022-08-04T05:28:28;2.50;;;2.40;;
3637;SDS011;1835;50.068;8.154;2022-08-04T05:31:03;2.67;;;2.53;;
3637;SDS011;1835;50.068;8.154;2022-08-04T05:33:38;2.57;;;2.47;;
3637;SDS011;1835;50.068;8.154;2022-08-04T05:36:13;4.70;;;2.13;;
3637;SDS011;1835;50.068;8.154;2022-08-04T05:39:05;5.73;;;3.57;;
3637;SDS011;1835;50.068;8.154;2022-08-04T05:41:38;4.53;;;3.30;;
3637;SDS011;1835;50.068;8.154;2022-08-04T05:44:15;3.30;;;3.10;;
3637;SDS011;1835;50.068;8.154;2022-08-04T05:46:47;5.80;;;2.40;;
3637;SDS011;1835;50.068;8.154;2022-08-04T05:49:21;2.50;;;2.40;;
3637;SDS011;1835;50.068;8.154;2022-08-04T05:51:50;2.33;;;1.97;;
3637;SDS011;1835;50.068;8.154;2022-08-04T05:54:20;2.60;;;2.50;;
3637;SDS011;1835;50.068;8.154;2022-08-04T05:56:49;3.83;;;2.50;;
3637;SDS011;1835;50.068;8.154;2022-08-04T05:59:22;2.40;;;2.30;;
3637;SDS011;1835;50.068;8.154;2022-08-04T06:01:52;2.17;;;2.07;;
3637;SDS011;1835;50.068;8.154;2022-08-04T06:04:24;3.60;;;2.07;;
3637;SDS011;1835;50.068;8.154;2022-08-04T06:06:58;2.30;;;2.07;;
3637;SDS011;1835;50.068;8.154;2022-08-04T06:09:26;2.17;;;2.00;;
3637;SDS011;1835;50.068;8.154;2022-08-04T06:11:55;2.20;;;2.00;;
3637;SDS011;1835;50.068;8.154;2022-08-04T06:14:32;1.83;;;1.73;;
3637;SDS011;1835;50.068;8.154;2022-08-04T06:17:06;2.17;;;2.03;;
3637;SDS011;1835;50.068;8.154;2022-08-04T06:19:56;1.97;;;1.87;;
3637;SDS011;1835;50.068;8.154;2022-08-04T06:22:48;1.60;;;1.60;;
3637;SDS011;1835;50.068;8.154;2022-08-04T06:25:22;2.50;;;2.40;;
3637;SDS011;1835;50.068;8.154;2022-08-04T06:27:57;2.00;;;1.90;;
3637;SDS011;1835;50.068;8.154;2022-08-04T06:30:29;1.93;;;1.60;;
3637;SDS011;1835;50.068;8.154;2022-08-04T06:32:59;2.17;;;1.87;;
3637;SDS011;1835;50.068;8.154;2022-08-04T06:35:30;1.97;;;1.87;;
3637;SDS011;1835;50.068;8.154;2022-08-04T06:37:59;2.30;;;2.10;;
3637;SDS011;1835;50.068;8.154;2022-08-04T06:40:29;2.77;;;1.80;;
3637;SDS011;1835;50.068;8.154;2022-08-04T06:42:59;2.17;;;2.07;;
3637;SDS011;1835;50.068;8.154;2022-08-04T06:45:31;2.00;;;1.90;;
3637;SDS011;1835;50.068;8.154;2022-08-04T06:48:02;2.00;;;1.90;;
3637;SDS011;1835;50.068;8.154;2022-08-04T06:50:33;1.97;;;1.87;;
3637;SDS011;1835;50.068;8.154;2022-08-04T06:53:23;6.33;;;5.03;;
3637;SDS011;1835;50.068;8.154;2022-08-04T06:55:52;9.07;;;2.60;;
3637;SDS011;1835;50.068;8.154;2022-08-04T06:58:22;2.40;;;2.30;;
3637;SDS011;1835;50.068;8.154;2022-08-04T07:00:53;5.23;;;2.23;;
3637;SDS011;1835;50.068;8.154;2022-08-04T07:03:29;4.23;;;2.00;;
3637;SDS011;1835;50.068;8.154;2022-08-04T07:05:58;4.13;;;2.10;;
3637;SDS011;1835;50.068;8.154;2022-08-04T07:08:32;3.13;;;2.07;;
3637;SDS011;1835;50.068;8.154;2022-08-04T07:11:02;2.50;;;2.30;;
3637;SDS011;1835;50.068;8.154;2022-08-04T07:13:31;2.20;;;1.80;;
3637;SDS011;1835;50.068;8.154;2022-08-04T07:16:02;2.40;;;1.73;;
3637;SDS011;1835;50.068;8.154;2022-08-04T07:18:31;1.80;;;1.70;;
3637;SDS011;1835;50.068;8.154;2022-08-04T07:21:00;1.90;;;1.80;;
3637;SDS011;1835;50.068;8.154;2022-08-04T07:23:28;1.83;;;1.60;;
3637;SDS011;1835;50.068;8.154;2022-08-04T07:25:57;4.63;;;1.93;;
3637;SDS011;1835;50.068;8.154;2022-08-04T07:28:38;1.90;;;1.73;;
3637;SDS011;1835;50.068;8.154;2022-08-04T07:31:10;4.53;;;1.43;;
3637;SDS011;1835;50.068;8.154;2022-08-04T07:34:00;7.23;;;1.40;;
3637;SDS011;1835;50.068;8.154;2022-08-04T07:36:47;5.80;;;1.90;;
3637;SDS011;1835;50.068;8.154;2022-08-04T07:39:22;1.73;;;1.63;;
3637;SDS011;1835;50.068;8.154;2022-08-04T07:41:54;2.70;;;1.40;;
3637;SDS011;1835;50.068;8.154;2022-08-04T07:44:27;1.43;;;1.40;;
3637;SDS011;1835;50.068;8.154;2022-08-04T07:46:58;1.67;;;1.57;;
3637;SDS011;1835;50.068;8.154;2022-08-04T07:49:28;1.50;;;1.40;;
3637;SDS011;1835;50.068;8.154;2022-08-04T07:52:17;5.10;;;1.50;;
3637;SDS011;1835;50.068;8.154;2022-08-04T07:54:47;1.60;;;1.50;;
3637;SDS011;1835;50.068;8.154;2022-08-04T07:57:17;1.80;;;1.70;;
3637;SDS011;1835;50.068;8.154;2022-08-04T08:00:06;6.00;;;1.60;;
3637;SDS011;1835;50.068;8.154;2022-08-04T08:02:39;3.33;;;1.70;;
3637;SDS011;1835;50.068;8.154;2022-08-04T08:05:09;2.30;;;1.50;;
3637;SDS011;1835;50.068;8.154;2022-08-04T08:07:40;2.00;;;1.80;;
3637;SDS011;1835;50.068;8.154;2022-08-04T08:10:19;2.60;;;1.63;;
3637;SDS011;1835;50.068;8.154;2022-08-04T08:12:47;1.90;;;1.80;;
3637;SDS011;1835;50.068;8.154;2022-08-04T08:15:18;2.80;;;1.43;;
3637;SDS011;1835;50.068;8.154;2022-08-04T08:17:48;1.27;;;1.27;;
3637;SDS011;1835;50.068;8.154;2022-08-04T08:20:26;5.60;;;1.50;;
3637;SDS011;1835;50.068;8.154;2022-08-04T08:22:56;12.90;;;1.97;;
3637;SDS011;1835;50.068;8.154;2022-08-04T08:25:26;2.30;;;1.33;;
3637;SDS011;1835;50.068;8.154;2022-08-04T08:27:56;3.80;;;1.52;;
3637;SDS011;1835;50.068;8.154;2022-08-04T08:30:24;4.30;;;1.60;;
3637;SDS011;1835;50.068;8.154;2022-08-04T08:33:00;3.25;;;1.60;;
3637;SDS011;1835;50.068;8.154;2022-08-04T08:35:33;1.67;;;1.58;;
3637;SDS011;1835;50.068;8.154;2022-08-04T08:38:19;2.70;;;1.65;;
3637;SDS011;1835;50.068;8.154;2022-08-04T08:40:56;1.50;;;1.40;;
3637;SDS011;1835;50.068;8.154;2022-08-04T08:43:55;5.63;;;1.50;;
3637;SDS011;1835;50.068;8.154;2022-08-04T08:47:00;2.20;;;1.40;;
3637;SDS011;1835;50.068;8.154;2022-08-04T08:49:50;1.60;;;1.50;;
3637;SDS011;1835;50.068;8.154;2022-08-04T08:52:59;1.50;;;1.40;;
3637;SDS011;1835;50.068;8.154;2022-08-04T08:55:41;2.17;;;1.97;;
3637;SDS011;1835;50.068;8.154;2022-08-04T08:58:31;1.60;;;1.60;;
3637;SDS011;1835;50.068;8.154;2022-08-04T09:01:13;1.90;;;1.80;;
3637;SDS011;1835;50.068;8.154;2022-08-04T09:04:06;5.55;;;1.67;;
3637;SDS011;1835;50.068;8.154;2022-08-04T09:07:09;1.35;;;1.25;;
3637;SDS011;1835;50.068;8.154;2022-08-04T09:10:02;3.33;;;1.48;;
3637;SDS011;1835;50.068;8.154;2022-08-04T09:12:38;1.95;;;1.23;;
3637;SDS011;1835;50.068;8.154;2022-08-04T09:15:14;2.00;;;1.90;;
3637;SDS011;1835;50.068;8.154;2022-08-04T09:17:49;2.72;;;1.65;;
3637;SDS011;1835;50.068;8.154;2022-08-04T09:20:27;1.33;;;1.33;;
3637;SDS011;1835;50.068;8.154;2022-08-04T09:23:05;3.78;;;1.27;;
3637;SDS011;1835;50.068;8.154;2022-08-04T09:25:46;2.83;;;1.60;;
3637;SDS011;1835;50.068;8.154;2022-08-04T09:28:22;1.63;;;1.63;;
3637;SDS011;1835;50.068;8.154;2022-08-04T09:31:14;1.95;;;1.25;;
3637;SDS011;1835;50.068;8.154;2022-08-04T09:33:49;2.05;;;1.30;;
3637;SDS011;1835;50.068;8.154;2022-08-04T09:36:31;1.67;;;1.58;;
3637;SDS011;1835;50.068;8.154;2022-08-04T09:39:09;4.05;;;1.70;;
3637;SDS011;1835;50.068;8.154;2022-08-04T09:41:57;11.57;;;2.83;;
3637;SDS011;1835;50.068;8.154;2022-08-04T09:44:38;1.63;;;1.52;;
3637;SDS011;1835;50.068;8.154;2022-08-04T09:47:23;3.42;;;1.15;;
3637;SDS011;1835;50.068;8.154;2022-08-04T09:50:09;1.27;;;1.27;;
3637;SDS011;1835;50.068;8.154;2022-08-04T09:52:46;1.65;;;1.35;;
3637;SDS011;1835;50.068;8.154;2022-08-04T09:55:30;2.67;;;1.50;;
3637;SDS011;1835;50.068;8.154;2022-08-04T09:58:21;1.52;;;1.50;;
3637;SDS011;1835;50.068;8.154;2022-08-04T10:01:15;2.30;;;1.30;;
3637;SDS011;1835;50.068;8.154;2022-08-04T10:03:49;5.78;;;1.65;;
3637;SDS011;1835;50.068;8.154;2022-08-04T10:09:46;1.55;;;1.55;;
3637;SDS011;1835;50.068;8.154;2022-08-04T10:12:30;1.60;;;1.50;;
3637;SDS011;1835;50.068;8.154;2022-08-04T10:15:12;1.45;;;1.38;;
3637;SDS011;1835;50.068;8.154;2022-08-04T10:18:01;1.50;;;1.40;;
3637;SDS011;1835;50.068;8.154;2022-08-04T10:20:50;4.50;;;1.90;;
3637;SDS011;1835;50.068;8.154;2022-08-04T10:23:41;3.78;;;1.42;;
3637;SDS011;1835;50.068;8.154;2022-08-04T10:26:30;2.45;;;1.60;;
3637;SDS011;1835;50.068;8.154;2022-08-04T10:29:10;2.08;;;1.80;;
3637;SDS011;1835;50.068;8.154;2022-08-04T10:31:44;4.10;;;2.10;;
3637;SDS011;1835;50.068;8.154;2022-08-04T10:34:23;2.08;;;1.65;;
3637;SDS011;1835;50.068;8.154;2022-08-04T10:36:58;17.60;;;1.50;;
3637;SDS011;1835;50.068;8.154;2022-08-04T10:39:36;14.32;;;1.85;;
3637;SDS011;1835;50.068;8.154;2022-08-04T10:42:34;12.27;;;1.75;;
3637;SDS011;1835;50.068;8.154;2022-08-04T10:45:12;2.20;;;1.48;;
3637;SDS011;1835;50.068;8.154;2022-08-04T10:47:50;4.13;;;1.10;;
3637;SDS011;1835;50.068;8.154;2022-08-04T10:50:27;4.35;;;1.40;;
3637;SDS011;1835;50.068;8.154;2022-08-04T10:52:57;1.70;;;1.60;;
3637;SDS011;1835;50.068;8.154;2022-08-04T10:55:35;1.73;;;1.63;;
3637;SDS011;1835;50.068;8.154;2022-08-04T10:58:31;1.65;;;1.65;;
3637;SDS011;1835;50.068;8.154;2022-08-04T11:01:16;6.35;;;1.65;;
3637;SDS011;1835;50.068;8.154;2022-08-04T11:04:14;1.53;;;1.50;;
3637;SDS011;1835;50.068;8.154;2022-08-04T11:06:53;3.07;;;2.30;;
3637;SDS011;1835;50.068;8.154;2022-08-04T11:09:22;1.83;;;1.60;;
3637;SDS011;1835;50.068;8.154;2022-08-04T11:11:52;5.23;;;1.50;;
3637;SDS011;1835;50.068;8.154;2022-08-04T11:14:28;1.70;;;1.27;;
3637;SDS011;1835;50.068;8.154;2022-08-04T11:17:06;8.37;;;1.13;;
3637;SDS011;1835;50.068;8.154;2022-08-04T11:19:41;2.97;;;1.40;;
3637;SDS011;1835;50.068;8.154;2022-08-04T11:22:21;1.83;;;1.53;;
3637;SDS011;1835;50.068;8.154;2022-08-04T11:24:53;1.30;;;1.30;;
3637;SDS011;1835;50.068;8.154;2022-08-04T11:27:34;3.70;;;1.50;;
3637;SDS011;1835;50.068;8.154;2022-08-04T11:30:13;1.93;;;1.10;;
3637;SDS011;1835;50.068;8.154;2022-08-04T11:32:45;1.40;;;1.40;;
3637;SDS011;1835;50.068;8.154;2022-08-04T11:35:28;1.50;;;1.40;;
3637;SDS011;1835;50.068;8.154;2022-08-04T11:38:04;2.97;;;1.20;;
3637;SDS011;1835;50.068;8.154;2022-08-04T11:40:40;4.10;;;1.33;;
3637;SDS011;1835;50.068;8.154;2022-08-04T11:43:36;2.43;;;0.90;;
3637;SDS011;1835;50.068;8.154;2022-08-04T11:46:29;10.30;;;1.47;;
3637;SDS011;1835;50.068;8.154;2022-08-04T11:49:06;4.90;;;1.13;;
3637;SDS011;1835;50.068;8.154;2022-08-04T11:51:41;3.30;;;1.40;;
3637;SDS011;1835;50.068;8.154;2022-08-04T11:54:10;4.07;;;1.40;;
3637;SDS011;1835;50.068;8.154;2022-08-04T11:56:40;6.93;;;1.60;;
3637;SDS011;1835;50.068;8.154;2022-08-04T11:59:08;1.87;;;1.03;;
3637;SDS011;1835;50.068;8.154;2022-08-04T12:01:41;1.10;;;1.10;;
3637;SDS011;1835;50.068;8.154;2022-08-04T12:04:34;2.30;;;1.27;;
3637;SDS011;1835;50.068;8.154;2022-08-04T12:07:15;5.13;;;1.13;;
3637;SDS011;1835;50.068;8.154;2022-08-04T12:09:57;1.80;;;1.20;;
3637;SDS011;1835;50.068;8.154;2022-08-04T12:12:42;1.20;;;1.20;;
3637;SDS011;1835;50.068;8.154;2022-08-04T12:15:22;1.77;;;1.07;;
3637;SDS011;1835;50.068;8.154;2022-08-04T12:17:59;6.40;;;1.40;;
3637;SDS011;1835;50.068;8.154;2022-08-04T12:20:44;1.10;;;1.10;;
3637;SDS011;1835;50.068;8.154;2022-08-04T12:23:18;1.17;;;1.10;;
3637;SDS011;1835;50.068;8.154;2022-08-04T12:25:51;2.00;;;1.30;;
3637;SDS011;1835;50.068;8.154;2022-08-04T12:28:28;1.13;;;1.03;;
3637;SDS011;1835;50.068;8.154;2022-08-04T12:31:22;1.10;;;1.10;;
3637;SDS011;1835;50.068;8.154;2022-08-04T12:33:55;4.30;;;1.10;;
3637;SDS011;1835;50.068;8.154;2022-08-04T12:36:34;1.70;;;1.60;;
3637;SDS011;1835;50.068;8.154;2022-08-04T12:39:10;3.53;;;1.20;;
3637;SDS011;1835;50.068;8.154;2022-08-04T12:41:44;1.13;;;1.13;;
3637;SDS011;1835;50.068;8.154;2022-08-04T12:44:34;1.30;;;1.30;;
3637;SDS011;1835;50.068;8.154;2022-08-04T12:47:06;4.33;;;1.10;;
3637;SDS011;1835;50.068;8.154;2022-08-04T12:49:54;1.03;;;1.03;;
3637;SDS011;1835;50.068;8.154;2022-08-04T12:52:31;0.90;;;0.90;;
3637;SDS011;1835;50.068;8.154;2022-08-04T12:55:29;4.10;;;1.27;;
3637;SDS011;1835;50.068;8.154;2022-08-04T12:58:00;1.37;;;1.27;;
3637;SDS011;1835;50.068;8.154;2022-08-04T13:00:36;15.30;;;1.33;;
3637;SDS011;1835;50.068;8.154;2022-08-04T13:03:08;1.70;;;1.00;;
3637;SDS011;1835;50.068;8.154;2022-08-04T13:05:39;1.63;;;1.17;;
3637;SDS011;1835;50.068;8.154;2022-08-04T13:08:10;1.43;;;1.33;;
3637;SDS011;1835;50.068;8.154;2022-08-04T13:10:41;1.50;;;1.40;;
3637;SDS011;1835;50.068;8.154;2022-08-04T13:13:14;2.97;;;1.30;;
3637;SDS011;1835;50.068;8.154;2022-08-04T13:15:53;1.23;;;1.10;;
3637;SDS011;1835;50.068;8.154;2022-08-04T13:18:24;1.03;;;1.03;;
3637;SDS011;1835;50.068;8.154;2022-08-04T13:21:06;1.63;;;1.37;;
3637;SDS011;1835;50.068;8.154;2022-08-04T13:23:48;0.83;;;0.83;;
3637;SDS011;1835;50.068;8.154;2022-08-04T13:26:49;3.83;;;1.50;;
3637;SDS011;1835;50.068;8.154;2022-08-04T13:29:22;0.90;;;0.90;;
3637;SDS011;1835;50.068;8.154;2022-08-04T13:34:43;2.57;;;1.10;;
3637;SDS011;1835;50.068;8.154;2022-08-04T13:37:18;0.80;;;0.80;;
3637;SDS011;1835;50.068;8.154;2022-08-04T13:39:51;1.00;;;1.00;;
3637;SDS011;1835;50.068;8.154;2022-08-04T13:42:21;1.40;;;1.30;;
3637;SDS011;1835;50.068;8.154;2022-08-04T13:44:53;1.20;;;1.20;;
3637;SDS011;1835;50.068;8.154;2022-08-04T13:47:26;1.67;;;1.07;;
3637;SDS011;1835;50.068;8.154;2022-08-04T13:50:05;7.87;;;1.83;;
3637;SDS011;1835;50.068;8.154;2022-08-04T13:52:45;1.17;;;1.00;;
3637;SDS011;1835;50.068;8.154;2022-08-04T13:55:19;1.10;;;1.00;;
3637;SDS011;1835;50.068;8.154;2022-08-04T13:57:55;1.53;;;1.30;;
3637;SDS011;1835;50.068;8.154;2022-08-04T14:00:42;2.00;;;1.30;;
3637;SDS011;1835;50.068;8.154;2022-08-04T14:03:22;2.07;;;1.10;;
3637;SDS011;1835;50.068;8.154;2022-08-04T14:06:07;0.90;;;0.90;;
3637;SDS011;1835;50.068;8.154;2022-08-04T14:08:47;1.70;;;1.00;;
3637;SDS011;1835;50.068;8.154;2022-08-04T14:11:22;1.13;;;1.13;;
3637;SDS011;1835;50.068;8.154;2022-08-04T14:14:20;1.67;;;1.20;;
3637;SDS011;1835;50.068;8.154;2022-08-04T14:16:54;6.63;;;0.93;;
3637;SDS011;1835;50.068;8.154;2022-08-04T14:19:25;1.87;;;1.40;;
3637;SDS011;1835;50.068;8.154;2022-08-04T14:22:01;4.67;;;1.17;;
3637;SDS011;1835;50.068;8.154;2022-08-04T14:24:30;1.57;;;1.10;;
3637;SDS011;1835;50.068;8.154;2022-08-04T14:27:00;1.00;;;1.00;;
3637;SDS011;1835;50.068;8.154;2022-08-04T14:29:35;1.90;;;1.57;;
3637;SDS011;1835;50.068;8.154;2022-08-04T14:32:06;1.07;;;1.07;;
3637;SDS011;1835;50.068;8.154;2022-08-04T14:34:40;1.40;;;1.27;;
3637;SDS011;1835;50.068;8.154;2022-08-04T14:37:11;6.03;;;1.10;;
3637;SDS011;1835;50.068;8.154;2022-08-04T14:39:46;2.00;;;1.20;;
3637;SDS011;1835;50.068;8.154;2022-08-04T14:42:43;1.27;;;1.10;;
3637;SDS011;1835;50.068;8.154;2022-08-04T14:45:31;2.63;;;0.97;;
3637;SDS011;1835;50.068;8.154;2022-08-04T14:48:03;1.00;;;1.00;;
3637;SDS011;1835;50.068;8.154;2022-08-04T14:50:36;1.30;;;1.10;;
3637;SDS011;1835;50.068;8.154;2022-08-04T14:53:07;5.97;;;1.00;;
3637;SDS011;1835;50.068;8.154;2022-08-04T14:55:42;4.57;;;1.70;;
3637;SDS011;1835;50.068;8.154;2022-08-04T14:58:18;1.00;;;1.00;;
3637;SDS011;1835;50.068;8.154;2022-08-04T15:01:04;5.40;;;1.27;;
3637;SDS011;1835;50.068;8.154;2022-08-04T15:03:36;5.83;;;1.30;;
3637;SDS011;1835;50.068;8.154;2022-08-04T15:06:18;1.13;;;1.13;;
3637;SDS011;1835;50.068;8.154;2022-08-04T15:08:49;3.43;;;1.10;;
3637;SDS011;1835;50.068;8.154;2022-08-04T15:11:19;1.13;;;1.13;;
3637;SDS011;1835;50.068;8.154;2022-08-04T15:13:51;3.90;;;1.00;;
3637;SDS011;1835;50.068;8.154;2022-08-04T15:16:20;0.90;;;0.90;;
3637;SDS011;1835;50.068;8.154;2022-08-04T15:18:50;1.20;;;1.10;;
3637;SDS011;1835;50.068;8.154;2022-08-04T15:21:22;0.80;;;0.80;;
3637;SDS011;1835;50.068;8.154;2022-08-04T15:23:54;1.00;;;1.00;;
3637;SDS011;1835;50.068;8.154;2022-08-04T15:26:26;1.37;;;1.30;;
3637;SDS011;1835;50.068;8.154;2022-08-04T15:29:04;1.10;;;1.10;;
3637;SDS011;1835;50.068;8.154;2022-08-04T15:31:42;1.10;;;1.10;;
3637;SDS011;1835;50.068;8.154;2022-08-04T15:37:25;2.57;;;0.90;;
3637;SDS011;1835;50.068;8.154;2022-08-04T15:39:59;1.57;;;1.03;;
3637;SDS011;1835;50.068;8.154;2022-08-04T15:42:37;1.90;;;1.00;;
3637;SDS011;1835;50.068;8.154;2022-08-04T15:45:18;4.30;;;1.13;;
3637;SDS011;1835;50.068;8.154;2022-08-04T15:48:21;1.13;;;1.03;;
3637;SDS011;1835;50.068;8.154;2022-08-04T15:50:59;3.50;;;1.33;;
3637;SDS011;1835;50.068;8.154;2022-08-04T15:53:30;1.27;;;1.10;;
3637;SDS011;1835;50.068;8.154;2022-08-04T15:56:52;1.67;;;1.20;;
3637;SDS011;1835;50.068;8.154;2022-08-04T16:02:41;0.93;;;0.93;;
3637;SDS011;1835;50.068;8.154;2022-08-04T16:08:14;1.90;;;1.40;;
3637;SDS011;1835;50.068;8.154;2022-08-04T16:10:47;1.00;;;1.00;;
3637;SDS011;1835;50.068;8.154;2022-08-04T16:13:16;1.00;;;1.00;;
3637;SDS011;1835;50.068;8.154;2022-08-04T16:15:48;1.83;;;1.43;;
3637;SDS011;1835;50.068;8.154;2022-08-04T16:18:39;3.50;;;1.20;;
3637;SDS011;1835;50.068;8.154;2022-08-04T16:21:19;1.03;;;1.03;;
3637;SDS011;1835;50.068;8.154;2022-08-04T16:23:55;1.50;;;1.17;;
3637;SDS011;1835;50.068;8.154;2022-08-04T16:26:45;11.80;;;1.43;;
3637;SDS011;1835;50.068;8.154;2022-08-04T16:29:27;1.53;;;1.10;;
3637;SDS011;1835;50.068;8.154;2022-08-04T16:32:10;6.93;;;1.20;;
3637;SDS011;1835;50.068;8.154;2022-08-04T16:34:52;2.33;;;1.13;;
3637;SDS011;1835;50.068;8.154;2022-08-04T16:37:29;1.33;;;1.20;;
3637;SDS011;1835;50.068;8.154;2022-08-04T16:43:03;1.40;;;1.30;;
3637;SDS011;1835;50.068;8.154;2022-08-04T16:45:38;1.90;;;1.80;;
3637;SDS011;1835;50.068;8.154;2022-08-04T16:48:25;3.63;;;1.93;;
3637;SDS011;1835;50.068;8.154;2022-08-04T16:51:03;1.47;;;1.47;;
3637;SDS011;1835;50.068;8.154;2022-08-04T16:53:33;3.17;;;1.20;;
3637;SDS011;1835;50.068;8.154;2022-08-04T16:56:28;2.83;;;1.10;;
3637;SDS011;1835;50.068;8.154;2022-08-04T16:59:06;4.03;;;1.33;;
3637;SDS011;1835;50.068;8.154;2022-08-04T17:01:36;1.57;;;1.47;;
3637;SDS011;1835;50.068;8.154;2022-08-04T17:04:05;1.63;;;1.30;;
3637;SDS011;1835;50.068;8.154;2022-08-04T17:06:35;1.30;;;1.20;;
3637;SDS011;1835;50.068;8.154;2022-08-04T17:09:08;1.30;;;1.30;;
3637;SDS011;1835;50.068;8.154;2022-08-04T17:11:40;2.87;;;1.20;;
3637;SDS011;1835;50.068;8.154;2022-08-04T17:14:10;2.30;;;1.23;;
3637;SDS011;1835;50.068;8.154;2022-08-04T17:16:39;1.63;;;1.23;;
3637;SDS011;1835;50.068;8.154;2022-08-04T17:19:09;1.10;;;1.10;;
3637;SDS011;1835;50.068;8.154;2022-08-04T17:21:53;3.50;;;1.10;;
3637;SDS011;1835;50.068;8.154;2022-08-04T17:24:31;1.83;;;1.13;;
3637;SDS011;1835;50.068;8.154;2022-08-04T17:27:00;2.37;;;1.30;;